createdAt,value
2017-11-14T00:00:32.237Z,0
2017-11-14T00:01:12.725Z,0
2017-11-14T00:01:53.206Z,0
2017-11-14T00:02:33.691Z,0
2017-11-14T00:03:14.177Z,0
2017-11-14T00:03:54.666Z,0
2017-11-14T00:04:35.160Z,0
2017-11-14T00:05:15.646Z,0
2017-11-14T00:05:56.128Z,0
2017-11-14T00:06:36.617Z,0
2017-11-14T00:07:17.108Z,0
2017-11-14T00:07:57.594Z,0
2017-11-14T00:08:38.093Z,0
2017-11-14T00:09:18.582Z,0
2017-11-14T00:09:59.072Z,0
2017-11-14T00:10:39.549Z,0
2017-11-14T00:11:20.036Z,0
2017-11-14T00:12:00.521Z,0
2017-11-14T00:12:41.016Z,0
2017-11-14T00:13:21.506Z,0
2017-11-14T00:14:02.002Z,0
2017-11-14T00:14:42.484Z,0
2017-11-14T00:15:22.974Z,0
2017-11-14T00:16:03.463Z,0
2017-11-14T00:16:43.948Z,0
2017-11-14T00:17:24.425Z,0
2017-11-14T00:18:04.903Z,0
2017-11-14T00:18:45.379Z,0
2017-11-14T00:19:25.870Z,0
2017-11-14T00:20:06.348Z,0
2017-11-14T00:20:46.827Z,0
2017-11-14T00:21:27.312Z,0
2017-11-14T00:22:07.801Z,0
2017-11-14T00:22:48.281Z,0
2017-11-14T00:23:28.759Z,0
2017-11-14T00:24:09.248Z,0
2017-11-14T00:24:49.735Z,0
2017-11-14T00:25:30.216Z,0
2017-11-14T00:26:10.697Z,0
2017-11-14T00:26:51.183Z,0
2017-11-14T00:27:31.674Z,0
2017-11-14T00:28:12.151Z,0
2017-11-14T00:28:52.660Z,0
2017-11-14T00:29:33.147Z,0
2017-11-14T00:30:13.628Z,0
2017-11-14T00:30:54.140Z,0
2017-11-14T00:31:34.599Z,0
2017-11-14T00:32:15.083Z,0
2017-11-14T00:32:55.569Z,0
2017-11-14T00:33:36.046Z,0
2017-11-14T00:34:16.561Z,0
2017-11-14T00:34:57.045Z,0
2017-11-14T00:35:37.526Z,0
2017-11-14T00:36:18.013Z,0
2017-11-14T00:36:58.503Z,0
2017-11-14T00:37:39.000Z,0
2017-11-14T00:38:19.469Z,0
2017-11-14T00:38:59.965Z,0
2017-11-14T00:39:40.447Z,0
2017-11-14T00:40:20.930Z,0
2017-11-14T00:41:01.420Z,0
2017-11-14T00:41:41.910Z,0
2017-11-14T00:42:22.393Z,0
2017-11-14T00:43:02.866Z,0
2017-11-14T00:43:43.358Z,0
2017-11-14T00:44:23.860Z,0
2017-11-14T00:45:04.338Z,0
2017-11-14T00:45:44.812Z,0
2017-11-14T00:46:25.293Z,0
2017-11-14T00:47:05.773Z,0
2017-11-14T00:47:46.252Z,0
2017-11-14T00:48:26.736Z,0
2017-11-14T00:49:07.227Z,0
2017-11-14T00:49:47.718Z,0
2017-11-14T00:50:28.208Z,0
2017-11-14T00:51:08.704Z,0
2017-11-14T00:51:49.207Z,0
2017-11-14T00:52:29.687Z,0
2017-11-14T00:53:10.187Z,0
2017-11-14T00:53:50.667Z,0
2017-11-14T00:54:31.161Z,0
2017-11-14T00:55:11.656Z,0
2017-11-14T00:55:52.147Z,0
2017-11-14T00:56:32.626Z,0
2017-11-14T00:57:13.100Z,0
2017-11-14T00:57:53.595Z,0
2017-11-14T00:58:34.082Z,0
2017-11-14T00:59:14.560Z,0
2017-11-14T00:59:55.056Z,0
2017-11-14T01:00:35.533Z,0
2017-11-14T01:01:16.023Z,0
2017-11-14T01:01:56.512Z,0
2017-11-14T01:02:37.010Z,0
2017-11-14T01:03:17.498Z,0
2017-11-14T01:03:57.979Z,0
2017-11-14T01:04:38.484Z,0
2017-11-14T01:05:18.978Z,0
2017-11-14T01:05:59.449Z,0
2017-11-14T01:06:39.919Z,0
2017-11-14T01:07:20.407Z,0
2017-11-14T01:08:00.923Z,0
2017-11-14T01:08:41.390Z,0
2017-11-14T01:09:21.867Z,0
2017-11-14T01:10:02.366Z,0
2017-11-14T01:10:42.860Z,0
2017-11-14T01:11:23.332Z,0
2017-11-14T01:12:03.823Z,0
2017-11-14T01:12:44.335Z,0
2017-11-14T01:13:24.805Z,0
2017-11-14T01:14:05.309Z,0
2017-11-14T01:14:45.797Z,0
2017-11-14T01:15:26.277Z,0
2017-11-14T01:16:06.769Z,0
2017-11-14T01:16:47.252Z,0
2017-11-14T01:17:27.737Z,0
2017-11-14T01:18:08.218Z,0
2017-11-14T01:18:48.704Z,0
2017-11-14T01:19:29.201Z,0
2017-11-14T01:20:09.687Z,0
2017-11-14T01:20:50.165Z,0
2017-11-14T01:21:30.658Z,0
2017-11-14T01:22:11.147Z,0
2017-11-14T01:22:51.621Z,0
2017-11-14T01:23:32.120Z,0
2017-11-14T01:24:12.634Z,0
2017-11-14T01:24:53.104Z,0
2017-11-14T01:25:33.596Z,0
2017-11-14T01:26:14.093Z,0
2017-11-14T01:26:54.582Z,0
2017-11-14T01:27:35.055Z,0
2017-11-14T01:28:15.546Z,0
2017-11-14T01:28:56.035Z,0
2017-11-14T01:29:36.513Z,0
2017-11-14T01:30:17.001Z,0
2017-11-14T01:30:57.485Z,0
2017-11-14T01:31:37.985Z,0
2017-11-14T01:32:18.468Z,0
2017-11-14T01:32:58.965Z,0
2017-11-14T01:33:39.435Z,0
2017-11-14T01:34:19.927Z,0
2017-11-14T01:35:00.405Z,0
2017-11-14T01:35:40.895Z,0
2017-11-14T01:36:21.385Z,0
2017-11-14T01:37:01.856Z,0
2017-11-14T01:37:42.348Z,0
2017-11-14T01:38:22.832Z,0
2017-11-14T01:39:03.321Z,0
2017-11-14T01:39:43.814Z,0
2017-11-14T01:40:24.279Z,0
2017-11-14T01:41:04.754Z,0
2017-11-14T01:41:45.252Z,0
2017-11-14T01:42:25.741Z,0
2017-11-14T01:43:06.232Z,0
2017-11-14T01:43:46.722Z,0
2017-11-14T01:44:27.205Z,0
2017-11-14T01:45:07.691Z,0
2017-11-14T01:45:48.177Z,0
2017-11-14T01:46:28.666Z,0
2017-11-14T01:47:09.161Z,0
2017-11-14T01:47:49.654Z,0
2017-11-14T01:48:30.143Z,0
2017-11-14T01:49:10.627Z,0
2017-11-14T01:49:51.114Z,0
2017-11-14T01:50:31.599Z,0
2017-11-14T01:51:12.094Z,0
2017-11-14T01:51:52.575Z,0
2017-11-14T01:52:33.070Z,0
2017-11-14T01:53:13.563Z,0
2017-11-14T01:53:54.034Z,0
2017-11-14T01:54:34.516Z,0
2017-11-14T01:55:15.004Z,0
2017-11-14T01:55:55.489Z,0
2017-11-14T01:56:35.967Z,0
2017-11-14T01:57:16.445Z,0
2017-11-14T01:57:56.940Z,0
2017-11-14T01:58:37.428Z,0
2017-11-14T01:59:17.905Z,0
2017-11-14T01:59:58.393Z,0
2017-11-14T02:00:38.880Z,0
2017-11-14T02:01:19.360Z,0
2017-11-14T02:01:59.846Z,0
2017-11-14T02:02:40.332Z,0
2017-11-14T02:03:20.830Z,0
2017-11-14T02:04:01.321Z,0
2017-11-14T02:04:41.807Z,0
2017-11-14T02:05:22.292Z,0
2017-11-14T02:06:02.781Z,0
2017-11-14T02:06:43.244Z,0
2017-11-14T02:07:23.729Z,0
2017-11-14T02:08:04.221Z,0
2017-11-14T02:08:44.711Z,0
2017-11-14T02:09:25.196Z,0
2017-11-14T02:10:05.674Z,0
2017-11-14T02:10:46.161Z,0
2017-11-14T02:11:26.646Z,0
2017-11-14T02:12:07.128Z,0
2017-11-14T02:12:47.614Z,0
2017-11-14T02:13:28.095Z,0
2017-11-14T02:14:08.571Z,0
2017-11-14T02:14:49.046Z,0
2017-11-14T02:15:29.537Z,0
2017-11-14T02:16:10.019Z,0
2017-11-14T02:16:50.517Z,0
2017-11-14T02:17:31.012Z,0
2017-11-14T02:18:11.506Z,0
2017-11-14T02:18:51.993Z,0
2017-11-14T02:19:32.476Z,0
2017-11-14T02:20:12.968Z,0
2017-11-14T02:20:53.442Z,0
2017-11-14T02:21:33.932Z,0
2017-11-14T02:22:14.407Z,0
2017-11-14T02:22:54.889Z,0
2017-11-14T02:23:35.408Z,0
2017-11-14T02:24:15.887Z,0
2017-11-14T02:24:56.373Z,0
2017-11-14T02:25:36.864Z,0
2017-11-14T02:26:17.350Z,0
2017-11-14T02:26:57.823Z,0
2017-11-14T02:27:38.306Z,0
2017-11-14T02:28:18.795Z,0
2017-11-14T02:28:59.290Z,0
2017-11-14T02:29:39.757Z,0
2017-11-14T02:30:20.248Z,0
2017-11-14T02:31:00.734Z,0
2017-11-14T02:31:41.216Z,0
2017-11-14T02:32:21.707Z,0
2017-11-14T02:33:02.185Z,0
2017-11-14T02:33:42.680Z,0
2017-11-14T02:34:23.164Z,0
2017-11-14T02:35:03.645Z,0
2017-11-14T02:35:44.140Z,0
2017-11-14T02:36:24.623Z,0
2017-11-14T02:37:05.112Z,0
2017-11-14T02:37:45.609Z,0
2017-11-14T02:38:26.099Z,0
2017-11-14T02:39:06.578Z,0
2017-11-14T02:39:47.063Z,0
2017-11-14T02:40:27.550Z,0
2017-11-14T02:41:08.045Z,0
2017-11-14T02:41:48.537Z,0
2017-11-14T02:42:29.034Z,0
2017-11-14T02:43:09.516Z,0
2017-11-14T02:43:49.994Z,0
2017-11-14T02:44:30.479Z,0
2017-11-14T02:45:10.969Z,0
2017-11-14T02:45:51.455Z,0
2017-11-14T02:46:31.931Z,0
2017-11-14T02:47:12.393Z,0
2017-11-14T02:47:52.899Z,0
2017-11-14T02:48:33.383Z,0
2017-11-14T02:49:13.864Z,0
2017-11-14T02:49:54.353Z,0
2017-11-14T02:50:34.856Z,0
2017-11-14T02:51:15.336Z,0
2017-11-14T02:51:55.813Z,0
2017-11-14T02:52:36.310Z,0
2017-11-14T02:53:16.796Z,0
2017-11-14T02:53:57.284Z,0
2017-11-14T02:54:37.759Z,0
2017-11-14T02:55:18.247Z,0
2017-11-14T02:55:58.736Z,0
2017-11-14T02:56:39.210Z,0
2017-11-14T02:57:19.690Z,0
2017-11-14T02:58:00.184Z,0
2017-11-14T02:58:40.691Z,0
2017-11-14T02:59:21.166Z,0
2017-11-14T03:00:01.666Z,0
2017-11-14T03:00:42.146Z,0
2017-11-14T03:01:22.626Z,0
2017-11-14T03:02:03.116Z,0
2017-11-14T03:02:43.601Z,0
2017-11-14T03:03:24.086Z,0
2017-11-14T03:04:04.570Z,0
2017-11-14T03:04:45.073Z,0
2017-11-14T03:05:25.562Z,0
2017-11-14T03:06:06.043Z,0
2017-11-14T03:06:46.531Z,0
2017-11-14T03:07:27.027Z,0
2017-11-14T03:08:07.510Z,0
2017-11-14T03:08:47.977Z,0
2017-11-14T03:09:28.450Z,0
2017-11-14T03:10:08.941Z,0
2017-11-14T03:10:49.430Z,0
2017-11-14T03:11:29.903Z,0
2017-11-14T03:12:10.387Z,0
2017-11-14T03:12:50.877Z,0
2017-11-14T03:13:31.365Z,0
2017-11-14T03:14:11.850Z,0
2017-11-14T03:14:52.331Z,0
2017-11-14T03:15:32.818Z,0
2017-11-14T03:16:13.306Z,0
2017-11-14T03:16:53.785Z,0
2017-11-14T03:17:34.273Z,0
2017-11-14T03:18:14.763Z,0
2017-11-14T03:18:55.235Z,0
2017-11-14T03:19:35.719Z,0
2017-11-14T03:20:16.205Z,0
2017-11-14T03:20:56.702Z,0
2017-11-14T03:21:37.184Z,0
2017-11-14T03:22:17.672Z,0
2017-11-14T03:22:58.161Z,0
2017-11-14T03:23:38.649Z,0
2017-11-14T03:24:19.143Z,0
2017-11-14T03:24:59.638Z,0
2017-11-14T03:25:40.146Z,0
2017-11-14T03:26:20.600Z,0
2017-11-14T03:27:01.080Z,0
2017-11-14T03:27:41.565Z,0
2017-11-14T03:28:22.051Z,0
2017-11-14T03:29:02.557Z,0
2017-11-14T03:29:43.049Z,0
2017-11-14T03:30:23.542Z,0
2017-11-14T03:31:04.017Z,0
2017-11-14T03:31:44.530Z,0
2017-11-14T03:32:25.018Z,0
2017-11-14T03:33:05.490Z,0
2017-11-14T03:33:45.984Z,0
2017-11-14T03:34:26.469Z,0
2017-11-14T03:35:06.957Z,0
2017-11-14T03:35:47.433Z,0
2017-11-14T03:36:27.908Z,0
2017-11-14T03:37:08.397Z,0
2017-11-14T03:37:48.887Z,0
2017-11-14T03:38:29.369Z,0
2017-11-14T03:39:09.853Z,0
2017-11-14T03:39:50.344Z,0
2017-11-14T03:40:30.827Z,0
2017-11-14T03:41:11.306Z,0
2017-11-14T03:41:51.789Z,0
2017-11-14T03:42:32.281Z,0
2017-11-14T03:43:12.773Z,0
2017-11-14T03:43:53.242Z,0
2017-11-14T03:44:33.736Z,0
2017-11-14T03:45:14.238Z,0
2017-11-14T03:45:54.705Z,0
2017-11-14T03:46:35.167Z,0
2017-11-14T03:47:15.651Z,0
2017-11-14T03:47:56.145Z,0
2017-11-14T03:48:36.633Z,0
2017-11-14T03:49:17.117Z,0
2017-11-14T03:49:57.620Z,0
2017-11-14T03:50:38.104Z,0
2017-11-14T03:51:18.590Z,0
2017-11-14T03:51:59.093Z,0
2017-11-14T03:52:39.581Z,0
2017-11-14T03:53:20.066Z,0
2017-11-14T03:54:00.542Z,0
2017-11-14T03:54:41.032Z,0
2017-11-14T03:55:21.512Z,0
2017-11-14T03:56:01.994Z,0
2017-11-14T03:56:42.473Z,0
2017-11-14T03:57:22.965Z,0
2017-11-14T03:58:03.453Z,0
2017-11-14T03:58:43.931Z,0
2017-11-14T03:59:24.423Z,0
2017-11-14T04:00:04.904Z,0
2017-11-14T04:00:45.396Z,0
2017-11-14T04:01:25.889Z,0
2017-11-14T04:02:06.382Z,0
2017-11-14T04:02:46.878Z,0
2017-11-14T04:03:27.359Z,0
2017-11-14T04:04:07.863Z,0
2017-11-14T04:04:48.350Z,0
2017-11-14T04:05:28.840Z,0
2017-11-14T04:06:09.332Z,0
2017-11-14T04:06:49.825Z,0
2017-11-14T04:07:30.307Z,0
2017-11-14T04:08:10.809Z,0
2017-11-14T04:08:51.302Z,0
2017-11-14T04:09:31.782Z,0
2017-11-14T04:10:12.266Z,0
2017-11-14T04:10:52.750Z,0
2017-11-14T04:11:33.249Z,0
2017-11-14T04:12:13.712Z,0
2017-11-14T04:12:54.187Z,0
2017-11-14T04:13:34.682Z,0
2017-11-14T04:14:15.170Z,0
2017-11-14T04:14:55.653Z,0
2017-11-14T04:15:36.162Z,0
2017-11-14T04:16:16.645Z,0
2017-11-14T04:16:57.130Z,0
2017-11-14T04:17:37.617Z,0
2017-11-14T04:18:18.111Z,0
2017-11-14T04:18:58.601Z,0
2017-11-14T04:19:39.086Z,0
2017-11-14T04:20:19.569Z,0
2017-11-14T04:21:00.060Z,0
2017-11-14T04:21:40.543Z,0
2017-11-14T04:22:21.035Z,0
2017-11-14T04:23:01.523Z,0
2017-11-14T04:23:42.010Z,0
2017-11-14T04:24:22.488Z,0
2017-11-14T04:25:02.983Z,0
2017-11-14T04:25:43.477Z,0
2017-11-14T04:26:23.956Z,0
2017-11-14T04:27:04.460Z,0
2017-11-14T04:27:44.948Z,0
2017-11-14T04:28:25.426Z,0
2017-11-14T04:29:05.920Z,0
2017-11-14T04:29:46.406Z,0
2017-11-14T04:30:26.890Z,0
2017-11-14T04:31:07.367Z,0
2017-11-14T04:31:47.851Z,0
2017-11-14T04:32:28.333Z,0
2017-11-14T04:33:08.823Z,0
2017-11-14T04:33:49.284Z,0
2017-11-14T04:34:29.768Z,0
2017-11-14T04:35:10.266Z,0
2017-11-14T04:35:50.770Z,0
2017-11-14T04:36:31.240Z,0
2017-11-14T04:37:11.744Z,0
2017-11-14T04:37:52.229Z,0
2017-11-14T04:38:32.716Z,0
2017-11-14T04:39:13.194Z,0
2017-11-14T04:41:41.127Z,0
2017-11-14T04:42:21.610Z,0
2017-11-14T04:43:02.099Z,0
2017-11-14T04:43:42.599Z,0
2017-11-14T04:44:23.076Z,0
2017-11-14T04:45:03.562Z,0
2017-11-14T04:45:44.048Z,0
2017-11-14T04:46:24.537Z,0
2017-11-14T04:47:05.024Z,0
2017-11-14T04:47:45.508Z,0
2017-11-14T04:48:25.985Z,0
2017-11-14T04:49:06.470Z,0
2017-11-14T04:49:46.959Z,0
2017-11-14T04:50:27.432Z,0
2017-11-14T04:51:07.933Z,0
2017-11-14T04:51:48.406Z,0
2017-11-14T04:52:28.893Z,0
2017-11-14T04:53:09.374Z,0
2017-11-14T04:53:49.854Z,0
2017-11-14T04:54:30.341Z,0
2017-11-14T04:55:10.831Z,0
2017-11-14T04:55:51.310Z,0
2017-11-14T04:56:31.797Z,0
2017-11-14T04:57:12.285Z,0
2017-11-14T04:57:52.781Z,0
2017-11-14T04:58:33.267Z,0
2017-11-14T04:59:13.738Z,0
2017-11-14T04:59:54.240Z,0
2017-11-14T05:00:34.719Z,0
2017-11-14T05:01:15.198Z,0
2017-11-14T05:01:55.679Z,0
2017-11-14T05:02:36.166Z,0
2017-11-14T05:03:16.656Z,0
2017-11-14T05:03:57.150Z,0
2017-11-14T05:04:37.663Z,0
2017-11-14T05:05:18.136Z,0
2017-11-14T05:05:58.623Z,0
2017-11-14T05:06:39.105Z,0
2017-11-14T05:07:19.590Z,0
2017-11-14T05:08:00.083Z,0
2017-11-14T05:08:40.579Z,0
2017-11-14T05:09:21.034Z,0
2017-11-14T05:10:01.527Z,0
2017-11-14T05:10:42.011Z,0
2017-11-14T05:11:22.480Z,0
2017-11-14T05:12:02.963Z,0
2017-11-14T05:12:43.449Z,0
2017-11-14T05:13:23.938Z,0
2017-11-14T05:14:04.410Z,0
2017-11-14T05:14:44.909Z,0
2017-11-14T05:15:25.397Z,0
2017-11-14T05:16:05.878Z,0
2017-11-14T05:16:46.366Z,0
2017-11-14T05:17:26.855Z,0
2017-11-14T05:18:07.338Z,0
2017-11-14T05:18:47.826Z,0
2017-11-14T05:19:28.321Z,0
2017-11-14T05:20:08.813Z,0
2017-11-14T05:20:49.424Z,0
2017-11-14T05:21:29.939Z,0
2017-11-14T05:22:10.427Z,0
2017-11-14T05:22:50.920Z,0
2017-11-14T05:23:31.407Z,0
2017-11-14T05:24:11.885Z,0
2017-11-14T05:24:52.368Z,0
2017-11-14T05:25:32.856Z,0
2017-11-14T05:26:13.349Z,0
2017-11-14T05:26:53.820Z,0
2017-11-14T05:27:34.321Z,0
2017-11-14T05:28:14.819Z,0
2017-11-14T05:28:55.300Z,0
2017-11-14T05:29:35.774Z,0
2017-11-14T05:30:16.271Z,0
2017-11-14T05:30:56.737Z,0
2017-11-14T05:31:37.232Z,0
2017-11-14T05:32:17.707Z,0
2017-11-14T05:32:58.205Z,0
2017-11-14T05:33:38.694Z,0
2017-11-14T05:34:19.174Z,0
2017-11-14T05:34:59.666Z,0
2017-11-14T05:35:40.170Z,0
2017-11-14T05:36:20.664Z,0
2017-11-14T05:37:01.125Z,0
2017-11-14T05:37:41.619Z,0
2017-11-14T05:38:22.105Z,0
2017-11-14T05:39:02.582Z,0
2017-11-14T05:39:43.076Z,0
2017-11-14T05:40:23.566Z,0
2017-11-14T05:41:04.054Z,0
2017-11-14T05:41:44.532Z,0
2017-11-14T05:42:25.040Z,0
2017-11-14T05:43:05.521Z,0
2017-11-14T05:43:45.987Z,0
2017-11-14T05:44:26.476Z,0
2017-11-14T05:45:06.965Z,0
2017-11-14T05:45:47.452Z,0
2017-11-14T05:46:27.929Z,0
2017-11-14T05:47:08.410Z,0
2017-11-14T05:47:48.899Z,0
2017-11-14T05:48:29.386Z,0
2017-11-14T05:49:09.876Z,0
2017-11-14T05:49:50.359Z,0
2017-11-14T05:50:30.852Z,0
2017-11-14T05:51:11.313Z,0
2017-11-14T05:51:51.796Z,0
2017-11-14T05:52:32.255Z,0
2017-11-14T05:53:12.752Z,0
2017-11-14T05:53:53.258Z,0
2017-11-14T05:54:33.731Z,0
2017-11-14T05:55:14.221Z,0
2017-11-14T05:55:54.694Z,0
2017-11-14T05:56:35.191Z,0
2017-11-14T05:57:15.680Z,0
2017-11-14T05:57:56.151Z,0
2017-11-14T05:58:36.641Z,0
2017-11-14T05:59:17.134Z,0
2017-11-14T05:59:57.614Z,0
2017-11-14T06:00:38.101Z,0
2017-11-14T06:01:18.584Z,0
2017-11-14T06:01:59.069Z,0
2017-11-14T06:02:39.558Z,0
2017-11-14T06:03:20.029Z,0
2017-11-14T06:04:00.515Z,0
2017-11-14T06:04:40.999Z,0
2017-11-14T06:05:21.473Z,0
2017-11-14T06:06:01.954Z,0
2017-11-14T06:06:42.424Z,0
2017-11-14T06:07:22.897Z,0
2017-11-14T06:08:03.391Z,0
2017-11-14T06:08:43.863Z,0
2017-11-14T06:09:24.432Z,0
2017-11-14T06:10:04.913Z,0
2017-11-14T06:10:45.402Z,0
2017-11-14T06:11:25.888Z,0
2017-11-14T06:12:06.371Z,0
2017-11-14T06:12:46.855Z,0
2017-11-14T06:13:27.339Z,0
2017-11-14T06:14:07.816Z,0
2017-11-14T06:14:48.300Z,0
2017-11-14T06:15:28.777Z,0
2017-11-14T06:16:09.837Z,0
2017-11-14T06:16:50.310Z,0
2017-11-14T06:17:30.805Z,0
2017-11-14T06:18:12.470Z,0
2017-11-14T06:18:52.471Z,0
2017-11-14T06:19:32.952Z,0
2017-11-14T06:20:13.404Z,0
2017-11-14T06:20:53.877Z,0
2017-11-14T06:21:34.374Z,0
2017-11-14T06:22:14.861Z,0
2017-11-14T06:22:55.344Z,0
2017-11-14T06:23:35.831Z,0
2017-11-14T06:24:16.314Z,0
2017-11-14T06:24:56.811Z,0
2017-11-14T06:25:37.302Z,0
2017-11-14T06:26:17.787Z,0
2017-11-14T06:26:58.272Z,0
2017-11-14T06:27:38.799Z,0
2017-11-14T06:28:19.281Z,0
2017-11-14T06:28:59.784Z,0
2017-11-14T06:29:40.257Z,0
2017-11-14T06:30:20.740Z,0
2017-11-14T06:31:01.233Z,0
2017-11-14T06:31:41.721Z,0
2017-11-14T06:32:22.207Z,0
2017-11-14T06:33:02.696Z,0
2017-11-14T06:33:43.187Z,0
2017-11-14T06:34:23.665Z,0
2017-11-14T06:35:04.169Z,0
2017-11-14T06:35:44.671Z,0
2017-11-14T06:36:25.199Z,0
2017-11-14T06:37:05.732Z,0
2017-11-14T06:37:46.224Z,0
2017-11-14T06:38:26.749Z,0
2017-11-14T06:39:07.255Z,5
2017-11-14T06:39:47.775Z,5
2017-11-14T06:40:28.277Z,5
2017-11-14T06:41:08.812Z,5
2017-11-14T06:41:49.295Z,5
2017-11-14T06:42:29.774Z,5
2017-11-14T06:43:10.298Z,5
2017-11-14T06:43:50.793Z,5
2017-11-14T06:44:31.285Z,5
2017-11-14T06:45:11.772Z,5
2017-11-14T06:45:52.268Z,5
2017-11-14T06:46:32.775Z,5
2017-11-14T06:47:13.275Z,10
2017-11-14T06:47:53.788Z,10
2017-11-14T06:48:34.285Z,10
2017-11-14T06:49:14.800Z,10
2017-11-14T06:49:55.335Z,10
2017-11-14T06:50:35.867Z,10
2017-11-14T06:51:16.344Z,10
2017-11-14T06:51:56.893Z,10
2017-11-14T06:52:37.446Z,15
2017-11-14T06:53:17.935Z,15
2017-11-14T06:53:58.425Z,15
2017-11-14T06:54:38.910Z,15
2017-11-14T06:55:19.408Z,15
2017-11-14T06:55:59.896Z,20
2017-11-14T06:56:40.399Z,20
2017-11-14T06:57:20.874Z,20
2017-11-14T06:58:01.376Z,20
2017-11-14T06:58:41.853Z,20
2017-11-14T06:59:22.336Z,25
2017-11-14T07:00:02.778Z,25
2017-11-14T07:00:43.248Z,25
2017-11-14T07:01:23.740Z,25
2017-11-14T07:02:04.224Z,25
2017-11-14T07:02:44.732Z,30
2017-11-14T07:03:25.199Z,30
2017-11-14T07:04:05.699Z,30
2017-11-14T07:04:46.191Z,30
2017-11-14T07:05:26.669Z,35
2017-11-14T07:06:07.136Z,35
2017-11-14T07:06:47.632Z,35
2017-11-14T07:07:28.126Z,35
2017-11-14T07:08:08.603Z,35
2017-11-14T07:08:49.093Z,35
2017-11-14T07:09:29.575Z,40
2017-11-14T07:10:10.079Z,40
2017-11-14T07:10:50.558Z,40
2017-11-14T07:11:31.049Z,45
2017-11-14T07:12:11.543Z,45
2017-11-14T07:12:52.010Z,45
2017-11-14T07:13:32.491Z,50
2017-11-14T07:14:12.971Z,50
2017-11-14T07:14:53.501Z,50
2017-11-14T07:15:33.988Z,55
2017-11-14T07:16:14.502Z,55
2017-11-14T07:16:54.991Z,55
2017-11-14T07:17:35.493Z,60
2017-11-14T07:18:16.005Z,60
2017-11-14T07:18:56.521Z,60
2017-11-14T07:19:37.008Z,60
2017-11-14T07:21:54.794Z,65
2017-11-14T07:22:35.280Z,65
2017-11-14T07:23:15.767Z,65
2017-11-14T07:23:56.252Z,65
2017-11-14T07:24:36.721Z,65
2017-11-14T07:25:17.196Z,65
2017-11-14T07:25:57.704Z,65
2017-11-14T07:26:38.183Z,70
2017-11-14T07:27:18.657Z,70
2017-11-14T07:27:59.168Z,70
2017-11-14T07:28:39.648Z,75
2017-11-14T07:29:20.134Z,75
2017-11-14T07:30:00.628Z,75
2017-11-14T07:30:41.122Z,75
2017-11-14T07:31:21.603Z,75
2017-11-14T07:32:02.091Z,75
2017-11-14T07:32:42.635Z,75
2017-11-14T07:33:23.180Z,75
2017-11-14T07:34:03.640Z,80
2017-11-14T07:34:44.103Z,80
2017-11-14T07:35:24.537Z,85
2017-11-14T07:36:05.062Z,80
2017-11-14T07:36:45.622Z,80
2017-11-14T07:37:26.276Z,80
2017-11-14T07:38:06.854Z,85
2017-11-14T07:38:47.389Z,85
2017-11-14T07:39:27.973Z,90
2017-11-14T07:40:08.490Z,90
2017-11-14T07:40:49.011Z,90
2017-11-14T07:41:29.549Z,95
2017-11-14T07:42:10.091Z,105
2017-11-14T07:42:50.647Z,120
2017-11-14T07:43:31.251Z,125
2017-11-14T07:44:11.881Z,130
2017-11-14T07:44:52.414Z,130
2017-11-14T07:45:32.972Z,125
2017-11-14T07:46:13.528Z,120
2017-11-14T07:46:54.089Z,115
2017-11-14T07:47:34.669Z,115
2017-11-14T07:48:15.279Z,115
2017-11-14T07:48:55.910Z,120
2017-11-14T07:49:36.459Z,125
2017-11-14T07:50:17.046Z,130
2017-11-14T07:50:57.647Z,140
2017-11-14T07:51:38.207Z,135
2017-11-14T07:52:18.789Z,130
2017-11-14T07:52:59.350Z,125
2017-11-14T07:53:39.932Z,120
2017-11-14T07:54:20.526Z,115
2017-11-14T07:55:01.082Z,115
2017-11-14T07:55:41.546Z,110
2017-11-14T07:56:22.028Z,115
2017-11-14T07:57:02.477Z,120
2017-11-14T07:57:42.929Z,115
2017-11-14T07:58:23.628Z,105
2017-11-14T07:59:04.102Z,105
2017-11-14T07:59:44.606Z,110
2017-11-14T08:00:25.090Z,125
2017-11-14T08:01:05.597Z,130
2017-11-14T08:01:46.087Z,135
2017-11-14T08:02:26.566Z,125
2017-11-14T08:03:07.067Z,115
2017-11-14T08:03:47.568Z,120
2017-11-14T08:04:28.066Z,125
2017-11-14T08:05:08.560Z,140
2017-11-14T08:05:49.064Z,150
2017-11-14T08:06:29.542Z,150
2017-11-14T08:07:10.077Z,145
2017-11-14T08:07:50.569Z,140
2017-11-14T08:08:31.050Z,140
2017-11-14T08:09:11.569Z,135
2017-11-14T08:09:52.156Z,140
2017-11-14T08:10:32.821Z,140
2017-11-14T08:11:13.466Z,135
2017-11-14T08:11:54.114Z,130
2017-11-14T08:12:34.641Z,120
2017-11-14T08:13:15.220Z,120
2017-11-14T08:13:55.732Z,120
2017-11-14T08:14:36.266Z,125
2017-11-14T08:15:16.770Z,135
2017-11-14T08:15:57.231Z,145
2017-11-14T08:16:37.780Z,155
2017-11-14T08:17:18.345Z,165
2017-11-14T08:17:58.863Z,175
2017-11-14T08:18:39.380Z,180
2017-11-14T08:19:19.821Z,175
2017-11-14T08:21:32.639Z,140
2017-11-14T08:22:13.093Z,135
2017-11-14T08:22:53.558Z,135
2017-11-14T08:23:34.078Z,135
2017-11-14T08:24:14.580Z,135
2017-11-14T08:24:55.061Z,145
2017-11-14T08:25:35.536Z,150
2017-11-14T08:26:16.043Z,140
2017-11-14T08:26:56.548Z,135
2017-11-14T08:27:37.166Z,140
2017-11-14T08:28:17.704Z,145
2017-11-14T08:28:58.217Z,150
2017-11-14T08:29:38.779Z,150
2017-11-14T08:30:20.256Z,155
2017-11-14T08:31:00.822Z,155
2017-11-14T08:31:41.357Z,160
2017-11-14T08:32:21.891Z,165
2017-11-14T08:33:02.396Z,160
2017-11-14T08:33:42.924Z,145
2017-11-14T08:34:23.427Z,150
2017-11-14T08:35:03.931Z,155
2017-11-14T08:35:44.453Z,165
2017-11-14T08:36:24.954Z,170
2017-11-14T08:37:05.471Z,190
2017-11-14T08:37:45.989Z,195
2017-11-14T08:38:26.488Z,185
2017-11-14T08:39:06.971Z,170
2017-11-14T08:39:47.456Z,170
2017-11-14T08:40:28.038Z,170
2017-11-14T08:41:08.572Z,175
2017-11-14T08:41:49.089Z,175
2017-11-14T08:42:29.610Z,180
2017-11-14T08:43:10.098Z,180
2017-11-14T08:43:50.585Z,185
2017-11-14T08:44:31.076Z,190
2017-11-14T08:45:11.611Z,185
2017-11-14T08:45:52.096Z,200
2017-11-14T08:46:32.650Z,210
2017-11-14T08:47:13.157Z,215
2017-11-14T08:47:53.641Z,225
2017-11-14T08:48:34.132Z,230
2017-11-14T08:49:14.641Z,220
2017-11-14T08:49:55.173Z,205
2017-11-14T08:50:35.677Z,195
2017-11-14T08:51:16.136Z,185
2017-11-14T08:51:56.676Z,195
2017-11-14T08:52:37.148Z,210
2017-11-14T08:53:17.643Z,215
2017-11-14T08:53:58.148Z,200
2017-11-14T08:54:38.658Z,185
2017-11-14T08:55:19.174Z,185
2017-11-14T08:55:59.725Z,175
2017-11-14T08:56:40.260Z,170
2017-11-14T08:57:20.857Z,175
2017-11-14T08:58:01.446Z,185
2017-11-14T08:58:41.980Z,185
2017-11-14T08:59:22.505Z,180
2017-11-14T09:00:03.065Z,175
2017-11-14T09:00:43.443Z,180
2017-11-14T09:01:23.915Z,175
2017-11-14T09:02:04.384Z,170
2017-11-14T09:02:44.882Z,160
2017-11-14T09:03:25.381Z,155
2017-11-14T09:04:05.884Z,150
2017-11-14T09:04:46.410Z,150
2017-11-14T09:05:26.908Z,150
2017-11-14T09:06:07.390Z,150
2017-11-14T09:06:47.939Z,155
2017-11-14T09:07:28.435Z,160
2017-11-14T09:08:08.935Z,160
2017-11-14T09:08:49.418Z,160
2017-11-14T09:09:29.911Z,165
2017-11-14T09:10:10.406Z,155
2017-11-14T09:10:50.877Z,155
2017-11-14T09:11:31.389Z,160
2017-11-14T09:12:11.905Z,155
2017-11-14T09:12:52.393Z,150
2017-11-14T09:13:32.866Z,145
2017-11-14T09:14:13.337Z,135
2017-11-14T09:14:53.831Z,145
2017-11-14T09:15:34.299Z,160
2017-11-14T09:16:14.834Z,160
2017-11-14T09:16:55.327Z,160
2017-11-14T09:17:35.794Z,165
2017-11-14T09:18:16.280Z,170
2017-11-14T09:18:56.810Z,165
2017-11-14T09:19:37.302Z,165
2017-11-14T09:20:17.777Z,160
2017-11-14T09:20:58.256Z,155
2017-11-14T09:21:38.743Z,160
2017-11-14T09:22:19.231Z,165
2017-11-14T09:22:59.797Z,170
2017-11-14T09:23:40.316Z,175
2017-11-14T09:24:20.813Z,180
2017-11-14T09:25:01.314Z,180
2017-11-14T09:25:41.776Z,180
2017-11-14T09:26:22.244Z,185
2017-11-14T09:27:02.715Z,185
2017-11-14T09:27:43.193Z,185
2017-11-14T09:28:23.676Z,190
2017-11-14T09:29:04.158Z,190
2017-11-14T09:29:44.659Z,195
2017-11-14T09:30:25.148Z,195
2017-11-14T09:31:05.644Z,195
2017-11-14T09:31:46.125Z,190
2017-11-14T09:32:26.619Z,185
2017-11-14T09:33:07.096Z,185
2017-11-14T09:33:47.562Z,185
2017-11-14T09:34:28.063Z,180
2017-11-14T09:35:08.563Z,180
2017-11-14T09:35:49.042Z,190
2017-11-14T09:36:29.537Z,195
2017-11-14T09:38:43.064Z,210
2017-11-14T09:39:23.587Z,220
2017-11-14T09:40:04.045Z,230
2017-11-14T09:40:44.656Z,230
2017-11-14T09:41:25.293Z,225
2017-11-14T09:42:05.932Z,225
2017-11-14T09:42:47.146Z,210
2017-11-14T09:43:27.709Z,200
2017-11-14T09:44:08.253Z,200
2017-11-14T09:44:48.852Z,200
2017-11-14T09:45:29.405Z,205
2017-11-14T09:46:09.910Z,210
2017-11-14T09:46:50.807Z,210
2017-11-14T09:47:31.349Z,205
2017-11-14T09:48:12.062Z,200
2017-11-14T09:48:52.781Z,210
2017-11-14T09:49:33.270Z,215
2017-11-14T09:50:13.842Z,225
2017-11-14T09:50:54.378Z,230
2017-11-14T09:51:34.942Z,240
2017-11-14T09:52:15.546Z,245
2017-11-14T09:52:56.154Z,250
2017-11-14T09:53:36.727Z,255
2017-11-14T09:54:17.246Z,255